Time;durP1;ratioP1;P1;durP2;ratioP2;P2;SDS_P1;SDS_P2;PMS_P1;PMS_P2;Temp;Humidity;BMP_temperature;BMP_pressure;BME280_temperature;BME280_humidity;BME280_pressure;Samples;Min_cycle;Max_cycle;Signal;HPM_P1;HPM_P2
2021/11/26 00:01:03;;;;;;;46.30;24.83;;;;;;;;;;5051775;28;20052;-58
2021/11/26 00:03:29;;;;;;;40.27;24.83;;;;;;;;;;5044038;28;20471;-58
2021/11/26 00:05:55;;;;;;;41.67;24.33;;;;;;;;;;5031745;28;20029;-57
2021/11/26 00:08:21;;;;;;;35.57;26.27;;;;;;;;;;5031022;28;20100;-58
2021/11/26 00:10:47;;;;;;;34.20;24.83;;;;;;;;;;5031791;28;20493;-58
2021/11/26 00:13:13;;;;;;;34.37;25.03;;;;;;;;;;5031782;28;20026;-57
2021/11/26 00:15:43;;;;;;;39.33;25.83;;;;;;;;;;5035595;28;20100;-58
2021/11/26 00:18:16;;;;;;;37.87;25.70;;;;;;;;;;5034805;28;20387;-58
2021/11/26 00:20:42;;;;;;;40.30;24.00;;;;;;;;;;5035507;28;20045;-58
2021/11/26 00:23:08;;;;;;;32.37;25.17;;;;;;;;;;5035296;28;20021;-57
2021/11/26 00:25:34;;;;;;;39.90;26.77;;;;;;;;;;5035157;28;20033;-59
2021/11/26 00:28:00;;;;;;;35.77;22.83;;;;;;;;;;5034741;28;20032;-58
2021/11/26 00:30:26;;;;;;;40.87;25.70;;;;;;;;;;5035340;28;20034;-57
2021/11/26 00:32:52;;;;;;;42.17;27.60;;;;;;;;;;5035402;28;20035;-59
2021/11/26 00:35:18;;;;;;;33.93;22.63;;;;;;;;;;5035126;28;20025;-58
2021/11/26 00:37:44;;;;;;;37.77;26.60;;;;;;;;;;5034633;28;20030;-58
2021/11/26 00:40:10;;;;;;;31.37;23.57;;;;;;;;;;5034204;28;20041;-57
2021/11/26 00:42:39;;;;;;;36.13;25.50;;;;;;;;;;5034839;28;20156;-58
2021/11/26 00:45:05;;;;;;;29.73;22.70;;;;;;;;;;5035050;28;20037;-58
2021/11/26 00:47:31;;;;;;;34.40;25.67;;;;;;;;;;5034896;28;20030;-58
2021/11/26 00:49:57;;;;;;;42.13;26.33;;;;;;;;;;5034257;28;20026;-57
2021/11/26 00:52:23;;;;;;;33.97;24.83;;;;;;;;;;5034735;28;20025;-57
2021/11/26 00:54:49;;;;;;;41.83;26.17;;;;;;;;;;5034396;28;20025;-58
2021/11/26 00:57:15;;;;;;;35.73;23.10;;;;;;;;;;5034722;28;20036;-58
2021/11/26 00:59:41;;;;;;;36.33;25.43;;;;;;;;;;5034395;28;20463;-58
2021/11/26 01:02:07;;;;;;;38.47;25.60;;;;;;;;;;5034421;28;20025;-58
2021/11/26 01:04:34;;;;;;;36.03;22.20;;;;;;;;;;5050724;28;20475;-58
2021/11/26 01:07:00;;;;;;;37.90;24.93;;;;;;;;;;5054203;28;20025;-58
2021/11/26 01:09:26;;;;;;;32.60;23.13;;;;;;;;;;5053291;28;20021;-57
2021/11/26 01:11:52;;;;;;;35.37;25.00;;;;;;;;;;5054580;28;20174;-59
2021/11/26 01:14:18;;;;;;;36.37;25.00;;;;;;;;;;5054326;28;20028;-58
2021/11/26 01:16:44;;;;;;;33.90;24.57;;;;;;;;;;5054145;28;20471;-59
2021/11/26 01:19:10;;;;;;;39.47;26.73;;;;;;;;;;5053481;28;20110;-57
2021/11/26 01:21:36;;;;;;;35.90;26.50;;;;;;;;;;5054113;28;20083;-57
2021/11/26 01:24:02;;;;;;;37.73;26.43;;;;;;;;;;5053651;28;20515;-58
2021/11/26 01:26:28;;;;;;;35.10;25.13;;;;;;;;;;5054115;28;20467;-58
2021/11/26 01:28:54;;;;;;;37.37;25.63;;;;;;;;;;5053334;28;20082;-58
2021/11/26 01:31:20;;;;;;;33.70;22.80;;;;;;;;;;5054183;28;20076;-56
2021/11/26 01:33:46;;;;;;;28.27;22.53;;;;;;;;;;5053791;28;20116;-58
2021/11/26 01:36:12;;;;;;;31.87;22.70;;;;;;;;;;5053508;28;20132;-58
2021/11/26 01:38:38;;;;;;;39.97;25.53;;;;;;;;;;5052798;28;20021;-58
2021/11/26 01:41:08;;;;;;;30.87;23.60;;;;;;;;;;5053659;28;20482;-58
2021/11/26 01:43:34;;;;;;;37.40;26.23;;;;;;;;;;5053748;28;20044;-58
2021/11/26 01:46:08;;;;;;;34.40;22.67;;;;;;;;;;5053667;28;20021;-58
2021/11/26 01:48:34;;;;;;;28.50;23.00;;;;;;;;;;5052834;28;20347;-58
2021/11/26 01:51:01;;;;;;;36.17;21.93;;;;;;;;;;5053406;28;20477;-58
2021/11/26 01:53:27;;;;;;;34.47;23.83;;;;;;;;;;5053778;28;20165;-59
2021/11/26 01:55:53;;;;;;;35.30;23.97;;;;;;;;;;5053335;28;20029;-59
2021/11/26 01:58:19;;;;;;;36.63;25.60;;;;;;;;;;5052888;28;20024;-58
2021/11/26 02:00:46;;;;;;;43.23;26.93;;;;;;;;;;5053203;28;20055;-58
2021/11/26 02:03:12;;;;;;;39.53;24.73;;;;;;;;;;5047964;28;20028;-58
2021/11/26 02:05:38;;;;;;;36.40;25.90;;;;;;;;;;5033076;28;20021;-58
2021/11/26 02:08:04;;;;;;;35.47;24.83;;;;;;;;;;5032715;28;20021;-57
2021/11/26 02:10:30;;;;;;;31.37;23.13;;;;;;;;;;5033223;28;20075;-56
2021/11/26 02:12:56;;;;;;;44.90;28.47;;;;;;;;;;5033023;28;20024;-60
2021/11/26 02:15:24;;;;;;;42.03;24.20;;;;;;;;;;5033046;28;20026;-58
2021/11/26 02:17:54;;;;;;;35.53;26.53;;;;;;;;;;5032381;28;20028;-58
2021/11/26 02:20:21;;;;;;;33.07;24.10;;;;;;;;;;5032849;28;20538;-58
2021/11/26 02:22:47;;;;;;;35.07;23.57;;;;;;;;;;5033131;28;20037;-58
2021/11/26 02:25:14;;;;;;;33.83;23.63;;;;;;;;;;5032918;28;20486;-57
2021/11/26 02:27:40;;;;;;;38.43;24.83;;;;;;;;;;5032780;28;20033;-56
2021/11/26 02:30:15;;;;;;;37.57;23.77;;;;;;;;;;5032513;28;20025;-59
2021/11/26 02:32:41;;;;;;;36.53;25.27;;;;;;;;;;5032644;28;20028;-58
2021/11/26 02:35:08;;;;;;;35.67;23.53;;;;;;;;;;5032600;28;20083;-57
2021/11/26 02:37:34;;;;;;;32.83;22.83;;;;;;;;;;5032505;28;20545;-58
2021/11/26 02:39:59;;;;;;;35.20;23.77;;;;;;;;;;5031893;28;20022;-58
2021/11/26 02:42:26;;;;;;;38.47;24.03;;;;;;;;;;5032352;28;20030;-58
2021/11/26 02:44:52;;;;;;;35.97;23.60;;;;;;;;;;5032640;28;20080;-58
2021/11/26 02:47:18;;;;;;;32.87;24.40;;;;;;;;;;5032383;28;20172;-58
2021/11/26 02:49:44;;;;;;;37.23;24.87;;;;;;;;;;5031925;28;20052;-58
2021/11/26 02:52:10;;;;;;;36.30;23.27;;;;;;;;;;5032629;28;20044;-57
2021/11/26 02:54:36;;;;;;;35.50;24.10;;;;;;;;;;5032338;28;20083;-58
2021/11/26 02:57:02;;;;;;;32.37;24.33;;;;;;;;;;5032292;28;20156;-57
2021/11/26 02:59:28;;;;;;;33.53;24.40;;;;;;;;;;5031764;28;20356;-56
2021/11/26 03:01:53;;;;;;;33.67;23.03;;;;;;;;;;5032085;28;20041;-58
2021/11/26 03:04:19;;;;;;;32.50;24.13;;;;;;;;;;5046804;28;20056;-59
2021/11/26 03:06:45;;;;;;;28.87;22.40;;;;;;;;;;5052112;28;20408;-56
2021/11/26 03:09:11;;;;;;;32.97;23.00;;;;;;;;;;5050162;28;20551;-58
2021/11/26 03:11:37;;;;;;;30.50;23.33;;;;;;;;;;5052123;28;20079;-58
2021/11/26 03:14:03;;;;;;;32.67;23.17;;;;;;;;;;5051771;28;20025;-58
2021/11/26 03:16:29;;;;;;;36.20;24.50;;;;;;;;;;5051739;28;20105;-58
2021/11/26 03:18:55;;;;;;;32.40;23.93;;;;;;;;;;5051415;28;20174;-58
2021/11/26 03:21:21;;;;;;;30.50;22.10;;;;;;;;;;5052317;28;20033;-58
2021/11/26 03:23:47;;;;;;;30.73;22.13;;;;;;;;;;5051832;28;20028;-58
2021/11/26 03:26:13;;;;;;;37.17;23.40;;;;;;;;;;5051811;28;20024;-58
2021/11/26 03:28:39;;;;;;;30.37;21.53;;;;;;;;;;5051009;28;20485;-58
2021/11/26 03:31:05;;;;;;;33.53;24.37;;;;;;;;;;5051781;28;20444;-58
2021/11/26 03:33:31;;;;;;;37.30;24.97;;;;;;;;;;5052267;28;20433;-58
2021/11/26 03:35:57;;;;;;;34.07;22.10;;;;;;;;;;5051943;28;20045;-58
2021/11/26 03:38:23;;;;;;;37.93;24.17;;;;;;;;;;5051201;28;20025;-58
2021/11/26 03:40:49;;;;;;;36.33;24.93;;;;;;;;;;5051626;28;20036;-58
2021/11/26 03:43:15;;;;;;;29.73;23.27;;;;;;;;;;5051625;28;20022;-58
2021/11/26 03:45:41;;;;;;;38.77;24.20;;;;;;;;;;5051394;28;20029;-58
2021/11/26 03:48:07;;;;;;;33.10;24.37;;;;;;;;;;5051489;28;20031;-57
2021/11/26 03:50:33;;;;;;;32.10;21.77;;;;;;;;;;5055898;28;20515;-56
2021/11/26 03:52:59;;;;;;;35.40;23.87;;;;;;;;;;5055931;28;20025;-58
2021/11/26 03:55:27;;;;;;;30.90;22.53;;;;;;;;;;5055997;28;20045;-58
2021/11/26 03:57:54;;;;;;;37.87;26.37;;;;;;;;;;5055013;28;20033;-58
2021/11/26 04:00:20;;;;;;;30.97;22.20;;;;;;;;;;5055231;28;20029;-58
2021/11/26 04:02:46;;;;;;;33.03;25.13;;;;;;;;;;5053852;28;20039;-58
2021/11/26 04:05:13;;;;;;;36.23;23.40;;;;;;;;;;5035500;28;20048;-58
2021/11/26 04:07:39;;;;;;;29.03;22.37;;;;;;;;;;5035531;28;20380;-58
2021/11/26 04:10:06;;;;;;;39.37;25.87;;;;;;;;;;5034824;28;20091;-58
2021/11/26 04:12:32;;;;;;;34.80;23.83;;;;;;;;;;5035479;28;20446;-57
2021/11/26 04:14:58;;;;;;;31.43;22.90;;;;;;;;;;5034926;28;20037;-58
2021/11/26 04:17:24;;;;;;;31.47;23.83;;;;;;;;;;5034106;28;20033;-58
2021/11/26 04:19:50;;;;;;;37.13;23.13;;;;;;;;;;5034697;28;20022;-58
2021/11/26 04:22:16;;;;;;;30.13;21.33;;;;;;;;;;5035259;28;20365;-56
2021/11/26 04:24:42;;;;;;;31.67;21.73;;;;;;;;;;5035201;28;20059;-58
2021/11/26 04:27:08;;;;;;;35.20;25.37;;;;;;;;;;5035070;28;20083;-58
2021/11/26 04:29:35;;;;;;;39.17;26.80;;;;;;;;;;5034064;28;20099;-58
2021/11/26 04:32:01;;;;;;;36.97;23.33;;;;;;;;;;5029362;28;20437;-57
2021/11/26 04:34:27;;;;;;;36.80;21.83;;;;;;;;;;5034971;28;20022;-58
2021/11/26 04:36:53;;;;;;;34.63;21.93;;;;;;;;;;5035184;28;20044;-58
2021/11/26 04:39:19;;;;;;;31.60;22.37;;;;;;;;;;5034230;28;20415;-59
2021/11/26 04:41:45;;;;;;;30.63;22.00;;;;;;;;;;5034804;28;20045;-58
2021/11/26 04:44:11;;;;;;;34.23;23.30;;;;;;;;;;5034594;28;20030;-58
2021/11/26 04:46:37;;;;;;;33.93;21.77;;;;;;;;;;5034896;28;20026;-58
2021/11/26 04:49:05;;;;;;;36.30;22.60;;;;;;;;;;5034366;28;20083;-57
2021/11/26 04:51:31;;;;;;;32.20;22.87;;;;;;;;;;5034840;28;20025;-58
2021/11/26 04:53:57;;;;;;;31.87;24.67;;;;;;;;;;5034452;28;20034;-59
2021/11/26 04:56:23;;;;;;;35.90;24.33;;;;;;;;;;5037926;28;20090;-57
2021/11/26 04:58:49;;;;;;;34.67;23.23;;;;;;;;;;5043244;28;20107;-58
2021/11/26 05:01:15;;;;;;;38.40;25.50;;;;;;;;;;5053965;28;20489;-56
2021/11/26 05:03:41;;;;;;;33.90;23.57;;;;;;;;;;5045463;28;20030;-58
2021/11/26 05:06:07;;;;;;;33.33;23.83;;;;;;;;;;5034432;28;20387;-58
2021/11/26 05:08:33;;;;;;;35.43;24.40;;;;;;;;;;5033740;28;20430;-58
2021/11/26 05:10:59;;;;;;;36.07;23.77;;;;;;;;;;5036639;28;20112;-57
2021/11/26 05:13:28;;;;;;;31.33;23.03;;;;;;;;;;5034480;28;20028;-58
2021/11/26 05:15:54;;;;;;;33.37;22.80;;;;;;;;;;5033965;28;20036;-56
2021/11/26 05:18:23;;;;;;;40.97;21.77;;;;;;;;;;5033802;28;20056;-59
2021/11/26 05:20:55;;;;;;;36.83;23.17;;;;;;;;;;5034264;28;20021;-57
2021/11/26 05:23:22;;;;;;;35.17;22.87;;;;;;;;;;5034175;28;20079;-58
2021/11/26 05:25:48;;;;;;;35.20;26.43;;;;;;;;;;5046383;28;20695;-58
2021/11/26 05:28:14;;;;;;;33.63;25.17;;;;;;;;;;5053392;28;20025;-59
2021/11/26 05:30:41;;;;;;;33.60;21.80;;;;;;;;;;5053856;28;20118;-58
2021/11/26 05:33:07;;;;;;;43.07;26.53;;;;;;;;;;5053945;28;20032;-58
2021/11/26 05:35:33;;;;;;;37.93;24.63;;;;;;;;;;5053609;28;20037;-57
2021/11/26 05:37:59;;;;;;;39.33;23.77;;;;;;;;;;5050690;28;20116;-58
2021/11/26 05:40:25;;;;;;;32.87;25.70;;;;;;;;;;5050559;28;20522;-59
2021/11/26 05:42:51;;;;;;;33.37;25.10;;;;;;;;;;5053760;28;20033;-58
2021/11/26 05:45:18;;;;;;;43.47;25.07;;;;;;;;;;5053299;28;20094;-57
2021/11/26 05:47:44;;;;;;;34.10;25.10;;;;;;;;;;5046203;28;20438;-58
2021/11/26 05:50:12;;;;;;;43.77;27.33;;;;;;;;;;5033621;28;20026;-58
2021/11/26 05:52:38;;;;;;;37.70;27.47;;;;;;;;;;5033436;28;20049;-58
2021/11/26 05:55:07;;;;;;;36.53;25.37;;;;;;;;;;5033544;28;20033;-58
2021/11/26 05:57:33;;;;;;;39.80;23.63;;;;;;;;;;5033171;28;20061;-59
2021/11/26 05:59:59;;;;;;;35.53;24.33;;;;;;;;;;5032822;28;20060;-58
2021/11/26 06:02:25;;;;;;;38.40;24.57;;;;;;;;;;5045914;28;20463;-56
2021/11/26 06:04:51;;;;;;;39.57;26.27;;;;;;;;;;5044139;28;20032;-55
2021/11/26 06:07:17;;;;;;;31.43;22.97;;;;;;;;;;5051275;28;20029;-57
2021/11/26 06:09:42;;;;;;;37.00;24.47;;;;;;;;;;5048345;28;20021;-58
2021/11/26 06:12:09;;;;;;;39.80;27.63;;;;;;;;;;5050468;28;20329;-58
2021/11/26 06:14:35;;;;;;;33.30;24.63;;;;;;;;;;5050767;28;20374;-58
2021/11/26 06:17:01;;;;;;;37.87;25.40;;;;;;;;;;5033762;28;20507;-58
2021/11/26 06:19:27;;;;;;;36.27;25.20;;;;;;;;;;5043502;28;20032;-59
2021/11/26 06:21:53;;;;;;;37.93;25.57;;;;;;;;;;5052527;28;20039;-59
2021/11/26 06:24:19;;;;;;;32.40;22.83;;;;;;;;;;5036320;28;20155;-59
2021/11/26 06:26:45;;;;;;;36.50;25.63;;;;;;;;;;5032885;28;20399;-58
2021/11/26 06:29:14;;;;;;;36.13;22.53;;;;;;;;;;5035212;28;20053;-58
2021/11/26 06:31:41;;;;;;;25.40;20.77;;;;;;;;;;5041532;28;20087;-58
2021/11/26 06:34:07;;;;;;;26.17;20.43;;;;;;;;;;5049568;28;20031;-56
2021/11/26 06:36:33;;;;;;;31.73;21.80;;;;;;;;;;5052040;28;20060;-58
2021/11/26 06:39:00;;;;;;;27.40;21.80;;;;;;;;;;5051083;28;20443;-58
2021/11/26 06:41:26;;;;;;;36.80;22.20;;;;;;;;;;5042486;28;20383;-58
2021/11/26 06:43:52;;;;;;;36.47;22.30;;;;;;;;;;5050490;28;20033;-58
2021/11/26 06:46:18;;;;;;;36.97;22.07;;;;;;;;;;5039755;28;20045;-58
2021/11/26 06:48:44;;;;;;;32.83;24.57;;;;;;;;;;5044229;28;20420;-57
2021/11/26 06:51:10;;;;;;;31.00;22.97;;;;;;;;;;5049871;28;20051;-57
2021/11/26 06:53:36;;;;;;;31.57;21.97;;;;;;;;;;5044423;28;20037;-58
2021/11/26 06:56:02;;;;;;;39.47;23.77;;;;;;;;;;5032068;28;20540;-58
2021/11/26 06:58:28;;;;;;;31.37;21.40;;;;;;;;;;5032813;28;20467;-59
2021/11/26 07:00:54;;;;;;;31.67;22.97;;;;;;;;;;5035491;28;20047;-58
2021/11/26 07:03:20;;;;;;;31.93;20.30;;;;;;;;;;5043785;28;20021;-58
2021/11/26 07:05:46;;;;;;;35.90;22.23;;;;;;;;;;5050793;28;20045;-58
2021/11/26 07:08:12;;;;;;;32.60;23.17;;;;;;;;;;5047728;28;20106;-56
2021/11/26 07:10:38;;;;;;;30.60;20.73;;;;;;;;;;5049097;28;20029;-56
2021/11/26 07:13:04;;;;;;;30.20;21.97;;;;;;;;;;5040413;28;20029;-58
2021/11/26 07:15:31;;;;;;;30.77;21.40;;;;;;;;;;5034255;28;20029;-57
2021/11/26 07:17:57;;;;;;;38.30;21.67;;;;;;;;;;5039195;28;20032;-57
2021/11/26 07:20:23;;;;;;;30.63;22.33;;;;;;;;;;5042691;28;20312;-56
2021/11/26 07:22:49;;;;;;;33.63;23.73;;;;;;;;;;5041366;28;20091;-58
2021/11/26 07:25:15;;;;;;;30.10;23.50;;;;;;;;;;5031865;28;20026;-58
2021/11/26 07:27:41;;;;;;;29.50;21.37;;;;;;;;;;5040361;28;20024;-58
2021/11/26 07:30:08;;;;;;;27.13;19.20;;;;;;;;;;5039088;28;20033;-58
2021/11/26 07:32:34;;;;;;;28.27;20.33;;;;;;;;;;5040819;28;20029;-59
2021/11/26 07:35:00;;;;;;;32.40;22.57;;;;;;;;;;5042611;28;20059;-58
2021/11/26 07:37:26;;;;;;;28.70;23.17;;;;;;;;;;5041009;28;20099;-58
2021/11/26 07:39:52;;;;;;;35.17;24.77;;;;;;;;;;5032430;28;20099;-59
2021/11/26 07:42:18;;;;;;;31.37;22.20;;;;;;;;;;5036283;28;20033;-58
2021/11/26 07:44:44;;;;;;;34.77;26.10;;;;;;;;;;5033189;28;20052;-57
2021/11/26 07:47:13;;;;;;;34.67;27.17;;;;;;;;;;5049054;28;20076;-56
2021/11/26 07:49:40;;;;;;;34.93;24.00;;;;;;;;;;5034543;28;20037;-58
2021/11/26 07:52:08;;;;;;;37.87;22.07;;;;;;;;;;5030747;28;20118;-56
2021/11/26 07:54:34;;;;;;;37.37;21.40;;;;;;;;;;5043592;28;20033;-56
2021/11/26 07:57:00;;;;;;;34.00;24.70;;;;;;;;;;5037506;28;20032;-56
2021/11/26 07:59:26;;;;;;;38.87;25.87;;;;;;;;;;5044298;28;20217;-57
2021/11/26 08:01:53;;;;;;;34.43;24.37;;;;;;;;;;5039433;28;20043;-57
2021/11/26 08:04:19;;;;;;;38.70;24.03;;;;;;;;;;5035061;28;20030;-56
2021/11/26 08:06:46;;;;;;;36.07;22.00;;;;;;;;;;5033706;28;20037;-56
2021/11/26 08:09:16;;;;;;;31.20;23.00;;;;;;;;;;5044371;28;20037;-57
2021/11/26 08:11:42;;;;;;;35.17;22.43;;;;;;;;;;5049993;28;20051;-57
2021/11/26 08:14:08;;;;;;;33.40;26.50;;;;;;;;;;5045173;28;20025;-57
2021/11/26 08:16:35;;;;;;;36.17;25.40;;;;;;;;;;5031057;28;20535;-56
2021/11/26 08:19:01;;;;;;;39.57;25.03;;;;;;;;;;5030740;28;20275;-55
2021/11/26 08:21:27;;;;;;;43.23;26.03;;;;;;;;;;5042824;28;20064;-57
2021/11/26 08:23:53;;;;;;;34.73;26.00;;;;;;;;;;5049122;28;20474;-56
2021/11/26 08:26:20;;;;;;;40.70;23.17;;;;;;;;;;5032013;28;20036;-58
2021/11/26 08:28:45;;;;;;;37.17;25.30;;;;;;;;;;5030572;28;20064;-58
2021/11/26 08:31:11;;;;;;;37.63;25.83;;;;;;;;;;5041920;28;20033;-56
2021/11/26 08:33:37;;;;;;;39.70;24.80;;;;;;;;;;5032286;28;20033;-52
2021/11/26 08:36:04;;;;;;;35.73;24.73;;;;;;;;;;5034016;28;20037;-56
2021/11/26 08:38:29;;;;;;;38.60;23.10;;;;;;;;;;5035185;28;20064;-55
2021/11/26 08:40:55;;;;;;;37.13;23.90;;;;;;;;;;5042154;28;20063;-54
2021/11/26 08:43:21;;;;;;;34.13;22.73;;;;;;;;;;5048728;28;20181;-53
2021/11/26 08:45:48;;;;;;;35.27;24.23;;;;;;;;;;5041940;28;20040;-52
2021/11/26 08:48:14;;;;;;;32.27;24.47;;;;;;;;;;5047485;28;20048;-54
2021/11/26 08:50:40;;;;;;;38.83;23.20;;;;;;;;;;5052685;28;20029;-56
2021/11/26 08:53:07;;;;;;;36.30;23.67;;;;;;;;;;5054404;28;20025;-55
2021/11/26 08:55:34;;;;;;;34.27;24.73;;;;;;;;;;5052159;28;20481;-57
2021/11/26 08:58:01;;;;;;;36.97;24.20;;;;;;;;;;5053547;28;20021;-56
2021/11/26 09:00:28;;;;;;;36.13;25.23;;;;;;;;;;5041611;28;20064;-55
2021/11/26 09:02:54;;;;;;;42.53;24.43;;;;;;;;;;5036562;28;20029;-56
2021/11/26 09:05:20;;;;;;;33.97;20.83;;;;;;;;;;5037377;28;20117;-55
2021/11/26 09:07:47;;;;;;;30.37;23.33;;;;;;;;;;5034237;28;20489;-56
2021/11/26 09:10:14;;;;;;;36.00;23.50;;;;;;;;;;5042341;28;20100;-56
2021/11/26 09:12:40;;;;;;;40.80;23.43;;;;;;;;;;5051825;28;20033;-56
2021/11/26 09:15:06;;;;;;;36.77;24.53;;;;;;;;;;5035553;28;20036;-53
2021/11/26 09:17:32;;;;;;;34.57;23.87;;;;;;;;;;5035095;28;20529;-55
2021/11/26 09:19:58;;;;;;;41.90;23.90;;;;;;;;;;5042483;28;20025;-55
2021/11/26 09:22:24;;;;;;;34.97;24.03;;;;;;;;;;5043667;28;20047;-54
2021/11/26 09:24:51;;;;;;;35.63;24.70;;;;;;;;;;5043800;28;20032;-55
2021/11/26 09:27:17;;;;;;;32.63;25.67;;;;;;;;;;5044407;28;20360;-52
2021/11/26 09:29:46;;;;;;;33.87;23.83;;;;;;;;;;5042705;28;20066;-52
2021/11/26 09:32:12;;;;;;;35.63;25.50;;;;;;;;;;5047904;28;20111;-51
2021/11/26 09:34:38;;;;;;;34.97;23.00;;;;;;;;;;5039135;28;20026;-54
2021/11/26 09:37:04;;;;;;;39.00;24.60;;;;;;;;;;5041436;28;20029;-56
2021/11/26 09:39:30;;;;;;;38.77;25.47;;;;;;;;;;5053143;28;20025;-57
2021/11/26 09:41:56;;;;;;;42.00;25.27;;;;;;;;;;5040657;28;20044;-57
2021/11/26 09:44:23;;;;;;;32.40;24.53;;;;;;;;;;5048214;28;20033;-55
2021/11/26 09:46:54;;;;;;;41.33;26.20;;;;;;;;;;5044201;28;20035;-56
2021/11/26 09:49:20;;;;;;;;;;;;;;;;;;5053568;28;20104;-55
2021/11/26 09:51:45;;;;;;;38.83;24.50;;;;;;;;;;5040113;28;20051;-51
2021/11/26 09:54:11;;;;;;;35.13;23.97;;;;;;;;;;5050427;28;20463;-57
2021/11/26 09:56:37;;;;;;;38.33;24.17;;;;;;;;;;5034390;28;20703;-51
2021/11/26 09:59:03;;;;;;;34.43;21.73;;;;;;;;;;5034101;28;20116;-56
2021/11/26 10:01:29;;;;;;;34.27;24.20;;;;;;;;;;5038873;28;20048;-52
2021/11/26 10:03:55;;;;;;;41.00;26.03;;;;;;;;;;5044135;28;20030;-54
2021/11/26 10:06:36;;;;;;;45.93;26.10;;;;;;;;;;5050142;28;20395;-56
2021/11/26 10:09:02;;;;;;;;;;;;;;;;;;5051173;28;20033;-54
2021/11/26 10:11:31;;;;;;;34.20;23.50;;;;;;;;;;5065605;28;19915;-55
2021/11/26 10:13:57;;;;;;;47.70;27.53;;;;;;;;;;5066798;28;20459;-56
2021/11/26 10:16:24;;;;;;;30.83;23.90;;;;;;;;;;5073032;28;20094;-56
2021/11/26 10:18:51;;;;;;;37.10;24.03;;;;;;;;;;5072357;28;20424;-54
2021/11/26 10:21:19;;;;;;;38.47;25.90;;;;;;;;;;5053008;28;20047;-56
2021/11/26 10:23:47;;;;;;;30.53;23.50;;;;;;;;;;5048603;28;20467;-57
2021/11/26 10:26:14;;;;;;;35.37;23.77;;;;;;;;;;5038080;28;20037;-57
2021/11/26 10:28:41;;;;;;;37.17;23.13;;;;;;;;;;5036063;28;20025;-56
2021/11/26 10:31:07;;;;;;;35.80;24.00;;;;;;;;;;5043505;28;20041;-56
2021/11/26 10:33:34;;;;;;;28.60;22.57;;;;;;;;;;5035249;28;20470;-56
2021/11/26 10:36:02;;;;;;;29.30;21.17;;;;;;;;;;5040148;28;20033;-57
2021/11/26 10:38:29;;;;;;;38.20;21.67;;;;;;;;;;5049962;28;20029;-55
2021/11/26 10:40:57;;;;;;;32.40;22.20;;;;;;;;;;5047490;28;20025;-55
2021/11/26 10:43:56;;;;;;;33.60;23.37;;;;;;;;;;5042028;28;20132;-55
2021/11/26 10:46:40;;;;;;;31.60;22.20;;;;;;;;;;5033068;28;20040;-57
2021/11/26 11:00:14;;;;;;;29.50;22.00;;;;;;;;;;5039193;28;20143;-57
2021/11/26 11:02:41;;;;;;;34.33;20.10;;;;;;;;;;5050513;28;20044;-57
2021/11/26 11:05:12;;;;;;;32.38;21.38;;;;;;;;;;5051330;28;20037;-57
2021/11/26 11:07:39;;;;;;;35.85;22.08;;;;;;;;;;5051735;28;20025;-56
2021/11/26 11:10:05;;;;;;;28.20;19.87;;;;;;;;;;5031828;28;20606;-55
2021/11/26 11:12:32;;;;;;;26.60;19.67;;;;;;;;;;5050177;28;20028;-56
2021/11/26 11:14:59;;;;;;;30.23;20.83;;;;;;;;;;5037577;28;20032;-58
2021/11/26 11:17:28;;;;;;;30.02;19.20;;;;;;;;;;5032254;28;20044;-57
2021/11/26 11:19:59;;;;;;;30.67;19.90;;;;;;;;;;5042858;28;20509;-57
2021/11/26 11:22:26;;;;;;;33.07;21.03;;;;;;;;;;5051994;28;20025;-56
2021/11/26 11:24:53;;;;;;;30.63;21.00;;;;;;;;;;5037285;28;20034;-57
2021/11/26 11:27:19;;;;;;;28.83;21.13;;;;;;;;;;5033161;28;20089;-58
2021/11/26 11:29:45;;;;;;;33.33;20.97;;;;;;;;;;5042924;28;20032;-56
2021/11/26 11:32:12;;;;;;;29.50;19.77;;;;;;;;;;5046497;28;20030;-57
2021/11/26 11:34:38;;;;;;;29.37;20.40;;;;;;;;;;5051645;28;20335;-57
2021/11/26 11:37:07;;;;;;;24.75;17.73;;;;;;;;;;5047932;28;20037;-57
2021/11/26 11:39:48;;;;;;;35.33;20.00;;;;;;;;;;5036726;28;20040;-56
2021/11/26 11:42:14;;;;;;;;;;;;;;;;;;5034539;28;20029;-57
2021/11/26 11:44:40;;;;;;;33.23;18.27;;;;;;;;;;5045003;28;19913;-55
2021/11/26 11:47:17;;;;;;;29.00;17.30;;;;;;;;;;5035474;28;20079;-57
2021/11/26 11:49:43;;;;;;;30.43;21.40;;;;;;;;;;5035078;28;20022;-57
2021/11/26 11:52:10;;;;;;;27.88;20.13;;;;;;;;;;5041647;28;20036;-56
2021/11/26 11:54:49;;;;;;;26.73;20.13;;;;;;;;;;5047035;28;20044;-55
2021/11/26 11:57:23;;;;;;;35.50;21.33;;;;;;;;;;5031144;28;20036;-57
2021/11/26 11:59:50;;;;;;;28.00;18.40;;;;;;;;;;5034466;28;20033;-54
2021/11/26 12:02:25;;;;;;;27.40;19.13;;;;;;;;;;5038472;28;20029;-57
2021/11/26 12:04:53;;;;;;;28.30;19.37;;;;;;;;;;5043385;28;20030;-58
2021/11/26 12:07:27;;;;;;;31.55;21.08;;;;;;;;;;5043261;28;20036;-57
2021/11/26 12:10:12;;;;;;;37.67;20.80;;;;;;;;;;5049449;28;20164;-57
2021/11/26 12:13:04;;;;;;;27.30;19.87;;;;;;;;;;5037078;28;20060;-57
2021/11/26 12:15:34;;;;;;;31.23;18.83;;;;;;;;;;5041094;28;20363;-57
2021/11/26 12:18:00;;;;;;;33.35;20.30;;;;;;;;;;5040151;28;20057;-57
2021/11/26 12:20:26;;;;;;;30.63;18.67;;;;;;;;;;5038257;28;20049;-57
2021/11/26 12:23:11;;;;;;;30.13;19.27;;;;;;;;;;5041837;28;20030;-56
2021/11/26 12:28:06;;;;;;;29.27;18.63;;;;;;;;;;5054198;28;20033;-57
2021/11/26 12:30:33;;;;;;;30.33;19.23;;;;;;;;;;5036209;28;20029;-58
2021/11/26 12:32:59;;;;;;;31.98;19.80;;;;;;;;;;5047094;28;20116;-55
2021/11/26 12:35:25;;;;;;;29.77;16.00;;;;;;;;;;5039584;28;20044;-55
2021/11/26 12:38:00;;;;;;;29.40;19.10;;;;;;;;;;5052701;28;20032;-56
2021/11/26 12:40:26;;;;;;;27.50;19.45;;;;;;;;;;5037630;28;20121;-56
2021/11/26 12:42:59;;;;;;;31.02;21.42;;;;;;;;;;5042289;28;20037;-58
2021/11/26 12:45:29;;;;;;;23.60;16.17;;;;;;;;;;5041061;28;20026;-58
2021/11/26 12:47:57;;;;;;;26.30;19.00;;;;;;;;;;5045971;28;20025;-57
2021/11/26 12:53:11;;;;;;;28.00;18.23;;;;;;;;;;5045520;28;20040;-56
2021/11/26 12:55:38;;;;;;;31.70;18.63;;;;;;;;;;5035235;28;20025;-58
2021/11/26 12:58:05;;;;;;;39.13;18.37;;;;;;;;;;5042890;28;20124;-57
2021/11/26 13:00:32;;;;;;;28.73;20.17;;;;;;;;;;5037419;28;20104;-57
2021/11/26 13:03:09;;;;;;;25.10;18.30;;;;;;;;;;5044563;28;20029;-58
2021/11/26 13:05:35;;;;;;;33.07;20.73;;;;;;;;;;5042655;28;20028;-57
2021/11/26 13:08:01;;;;;;;34.53;18.87;;;;;;;;;;5050413;28;20203;-58
2021/11/26 13:10:27;;;;;;;29.37;18.93;;;;;;;;;;5044756;28;20362;-57
2021/11/26 13:12:55;;;;;;;25.43;17.47;;;;;;;;;;5039168;28;20040;-58
2021/11/26 13:15:20;;;;;;;28.30;17.08;;;;;;;;;;5042805;28;20041;-58
2021/11/26 13:17:48;;;;;;;30.33;18.03;;;;;;;;;;5041527;28;20032;-58
2021/11/26 13:20:15;;;;;;;25.93;16.50;;;;;;;;;;5039652;28;20033;-58
2021/11/26 13:22:58;;;;;;;31.35;18.95;;;;;;;;;;5047055;28;20044;-58
2021/11/26 13:25:26;;;;;;;33.77;19.40;;;;;;;;;;5044325;28;20033;-56
2021/11/26 13:27:52;;;;;;;28.80;15.20;;;;;;;;;;5035344;28;20033;-58
2021/11/26 13:30:20;;;;;;;29.83;18.67;;;;;;;;;;5041100;28;20071;-58
2021/11/26 13:32:46;;;;;;;27.07;16.50;;;;;;;;;;5051271;28;20037;-58
2021/11/26 13:35:12;;;;;;;24.63;18.25;;;;;;;;;;5036103;28;20053;-58
2021/11/26 13:37:48;;;;;;;21.67;14.82;;;;;;;;;;5036341;28;20127;-57
2021/11/26 13:40:14;;;;;;;27.88;17.77;;;;;;;;;;5044161;28;20021;-58
2021/11/26 13:42:42;;;;;;;21.63;16.67;;;;;;;;;;5042243;28;20375;-56
2021/11/26 13:45:08;;;;;;;23.27;15.73;;;;;;;;;;5038245;28;20104;-57
2021/11/26 13:47:34;;;;;;;24.83;16.73;;;;;;;;;;5045959;28;20175;-56
2021/11/26 13:50:03;;;;;;;25.67;16.20;;;;;;;;;;5050969;28;20036;-57
2021/11/26 13:52:29;;;;;;;25.10;17.48;;;;;;;;;;5044347;28;20068;-56
2021/11/26 13:54:55;;;;;;;25.02;15.27;;;;;;;;;;5040733;28;20530;-57
2021/11/26 13:57:29;;;;;;;24.33;16.07;;;;;;;;;;5048532;28;20159;-57
2021/11/26 14:00:07;;;;;;;25.43;16.30;;;;;;;;;;5034086;28;20036;-58
2021/11/26 14:02:44;;;;;;;21.15;15.20;;;;;;;;;;5034354;28;20399;-58
2021/11/26 14:05:10;;;;;;;23.48;16.83;;;;;;;;;;5049310;28;20030;-58
2021/11/26 14:07:36;;;;;;;28.52;16.60;;;;;;;;;;5034471;28;20025;-58
2021/11/26 14:10:06;;;;;;;24.17;14.63;;;;;;;;;;5041617;28;20104;-57
2021/11/26 14:12:32;;;;;;;24.25;15.77;;;;;;;;;;5037416;28;20033;-56
2021/11/26 14:14:58;;;;;;;21.13;15.32;;;;;;;;;;5037053;28;20025;-58
2021/11/26 14:17:25;;;;;;;17.38;13.10;;;;;;;;;;5043976;28;20060;-58
2021/11/26 14:19:56;;;;;;;19.58;14.27;;;;;;;;;;5032640;28;20029;-58
2021/11/26 14:22:25;;;;;;;22.00;13.60;;;;;;;;;;5039104;28;20032;-57
2021/11/26 14:24:55;;;;;;;19.02;12.82;;;;;;;;;;5046341;28;20037;-58
2021/11/26 14:27:27;;;;;;;19.02;13.07;;;;;;;;;;5044345;28;20056;-58
2021/11/26 14:29:55;;;;;;;17.63;11.70;;;;;;;;;;5040775;28;20021;-58
2021/11/26 14:32:22;;;;;;;19.75;11.43;;;;;;;;;;5044248;28;20044;-56
2021/11/26 14:35:01;;;;;;;16.23;10.77;;;;;;;;;;5033736;28;20025;-58